createdAt,value
2018-03-08T00:03:07.881Z,8.70
2018-03-08T00:08:10.678Z,9.30
2018-03-08T00:13:13.484Z,8.40
2018-03-08T00:18:16.290Z,8.27
2018-03-08T00:23:19.603Z,8.50
2018-03-08T00:28:22.441Z,7.82
2018-03-08T00:33:25.288Z,8.40
2018-03-08T00:38:28.112Z,8.98
2018-03-08T00:43:31.316Z,8.80
2018-03-08T00:48:34.117Z,9.70
2018-03-08T00:53:37.255Z,8.75
2018-03-08T00:58:42.894Z,10.10
2018-03-08T01:03:47.112Z,9.87
2018-03-08T01:08:50.048Z,9.13
2018-03-08T01:13:53.343Z,10.05
2018-03-08T01:18:56.415Z,10.00
2018-03-08T01:23:59.448Z,9.85
2018-03-08T01:29:02.993Z,10.18
2018-03-08T01:34:07.063Z,10.07
2018-03-08T01:39:10.643Z,10.87
2018-03-08T01:44:18.471Z,11.00
2018-03-08T01:49:21.257Z,11.50
2018-03-08T01:54:24.100Z,12.48
2018-03-08T01:59:26.908Z,12.45
2018-03-08T02:04:30.048Z,12.60
2018-03-08T02:09:32.840Z,12.50
2018-03-08T02:14:36.928Z,12.60
2018-03-08T02:19:40.656Z,12.32
2018-03-08T02:24:43.797Z,12.50
2018-03-08T02:29:46.604Z,11.98
2018-03-08T02:34:49.856Z,11.80
2018-03-08T02:39:52.794Z,11.70
2018-03-08T02:44:57.334Z,11.45
2018-03-08T02:50:00.158Z,11.80
2018-03-08T02:55:03.264Z,11.97
2018-03-08T03:00:07.173Z,12.00
2018-03-08T03:05:09.977Z,11.20
2018-03-08T03:10:13.189Z,12.95
2018-03-08T03:15:16.072Z,12.15
2018-03-08T03:20:19.084Z,11.93
2018-03-08T03:25:22.293Z,11.40
2018-03-08T03:30:25.389Z,11.20
2018-03-08T03:35:28.503Z,11.73
2018-03-08T03:40:31.908Z,10.90
2018-03-08T03:45:35.017Z,11.07
2018-03-08T03:50:39.530Z,10.70
2018-03-08T03:55:42.359Z,10.97
2018-03-08T04:00:46.575Z,10.47
2018-03-08T04:05:50.542Z,10.40
2018-03-08T04:10:53.392Z,10.65
2018-03-08T04:15:56.681Z,10.80
2018-03-08T04:20:59.596Z,10.60
2018-03-08T04:26:02.382Z,10.75
2018-03-08T04:31:05.748Z,11.25
2018-03-08T04:36:08.579Z,10.90
2018-03-08T04:41:11.453Z,11.65
2018-03-08T04:46:14.559Z,11.30
2018-03-08T04:51:17.385Z,12.32
2018-03-08T04:56:20.492Z,13.30
2018-03-08T05:01:24.005Z,14.30
2018-03-08T05:06:28.828Z,15.45
2018-03-08T05:11:31.597Z,15.70
2018-03-08T05:16:34.437Z,16.23
2018-03-08T05:21:38.032Z,16.50
2018-03-08T05:26:41.223Z,17.17
2018-03-08T05:31:44.029Z,16.30
2018-03-08T05:36:47.135Z,16.27
2018-03-08T05:41:50.253Z,15.05
2018-03-08T05:46:53.931Z,14.48
2018-03-08T05:51:56.993Z,13.60
2018-03-08T05:57:01.284Z,13.50
2018-03-08T06:02:04.970Z,11.90
2018-03-08T06:07:08.002Z,12.95
2018-03-08T06:12:10.844Z,11.88
2018-03-08T06:17:14.280Z,11.38
2018-03-08T06:22:18.377Z,11.05
2018-03-08T06:27:21.231Z,11.60
2018-03-08T06:32:24.028Z,11.50
2018-03-08T06:37:26.879Z,11.40
2018-03-08T06:42:29.665Z,9.90
2018-03-08T06:47:33.134Z,10.23
2018-03-08T06:52:36.376Z,10.20
2018-03-08T06:57:39.522Z,10.13
2018-03-08T07:02:43.073Z,10.27
2018-03-08T07:07:45.868Z,10.47
2018-03-08T07:12:48.690Z,9.82
2018-03-08T07:17:51.763Z,9.93
2018-03-08T07:22:54.566Z,9.23
2018-03-08T07:27:57.370Z,10.35
2018-03-08T07:33:00.177Z,9.63
2018-03-08T07:38:03.330Z,8.13
2018-03-08T07:43:06.845Z,7.72
2018-03-08T07:48:09.635Z,7.15
2018-03-08T07:53:12.424Z,6.60
2018-03-08T07:58:15.268Z,7.10
2018-03-08T08:03:18.866Z,6.07
2018-03-08T08:08:34.415Z,5.50
2018-03-08T08:13:37.578Z,5.80
2018-03-08T08:18:41.180Z,5.28
2018-03-08T08:23:44.019Z,4.90
2018-03-08T08:28:47.900Z,5.35
2018-03-08T08:33:51.428Z,4.70
2018-03-08T08:38:55.044Z,4.50
2018-03-08T08:43:58.636Z,4.70
2018-03-08T08:49:01.438Z,4.80
2018-03-08T08:54:04.249Z,4.55
2018-03-08T08:59:07.785Z,4.90
2018-03-08T09:04:10.601Z,4.00
2018-03-08T09:09:13.708Z,4.20
2018-03-08T09:14:16.722Z,4.10
2018-03-08T09:19:19.677Z,4.60
2018-03-08T09:24:23.578Z,4.30
2018-03-08T09:29:26.493Z,3.90
2018-03-08T09:34:29.557Z,4.75
2018-03-08T09:39:32.616Z,4.30
2018-03-08T09:44:36.500Z,3.73
2018-03-08T09:49:39.332Z,4.20
2018-03-08T09:54:43.187Z,3.70
2018-03-08T09:59:46.031Z,3.90
2018-03-08T10:04:49.146Z,3.70
2018-03-08T10:09:52.003Z,3.75
2018-03-08T10:14:55.281Z,3.30
2018-03-08T10:19:59.166Z,2.80
2018-03-08T10:25:02.302Z,3.25
2018-03-08T10:30:06.208Z,3.10
2018-03-08T10:35:11.162Z,3.92
2018-03-08T10:40:14.257Z,3.70
2018-03-08T10:45:17.192Z,3.55
2018-03-08T10:50:21.126Z,3.40
2018-03-08T10:55:23.937Z,3.40
2018-03-08T11:00:32.367Z,3.27
2018-03-08T11:05:40.739Z,3.20
2018-03-08T11:10:44.339Z,3.08
2018-03-08T11:15:47.345Z,3.22
2018-03-08T11:20:50.310Z,2.90
2018-03-08T11:25:53.883Z,3.37
2018-03-08T11:30:56.870Z,3.20
2018-03-08T11:36:01.059Z,3.50
2018-03-08T11:41:04.958Z,3.60
2018-03-08T11:46:08.067Z,3.50
2018-03-08T11:51:10.860Z,3.90
2018-03-08T11:56:13.724Z,3.10
2018-03-08T12:01:16.984Z,3.20
2018-03-08T12:06:19.803Z,3.22
2018-03-08T12:11:24.367Z,3.50
2018-03-08T12:16:27.864Z,2.30
2018-03-08T12:21:30.988Z,2.58
2018-03-08T12:26:34.541Z,2.65
2018-03-08T12:31:37.328Z,2.62
2018-03-08T12:36:40.175Z,2.55
2018-03-08T12:41:43.737Z,2.40
2018-03-08T12:46:46.539Z,2.10
2018-03-08T12:51:49.349Z,2.30
2018-03-08T12:56:52.933Z,2.00
2018-03-08T13:01:56.416Z,2.00
2018-03-08T13:06:59.982Z,2.03
2018-03-08T13:12:03.069Z,2.30
2018-03-08T13:17:05.876Z,2.22
2018-03-08T13:22:08.954Z,1.75
2018-03-08T13:27:12.492Z,1.70
2018-03-08T13:32:15.271Z,2.10
2018-03-08T13:37:18.858Z,1.70
2018-03-08T13:42:21.683Z,1.60
2018-03-08T13:47:25.188Z,1.90
2018-03-08T13:52:28.298Z,1.70
2018-03-08T13:57:31.054Z,1.80
2018-03-08T14:02:34.217Z,1.90
2018-03-08T14:07:37.804Z,2.00
2018-03-08T14:12:40.623Z,1.75
2018-03-08T14:17:44.200Z,2.10
2018-03-08T14:22:47.033Z,2.12
2018-03-08T14:27:49.850Z,2.00
2018-03-08T14:32:53.403Z,1.80
2018-03-08T14:37:56.233Z,2.17
2018-03-08T14:42:59.068Z,2.00
2018-03-08T14:48:02.651Z,2.00
2018-03-08T14:53:05.789Z,1.85
2018-03-08T14:58:09.708Z,2.10
2018-03-08T15:03:13.333Z,2.00
2018-03-08T15:08:17.563Z,2.30
2018-03-08T15:13:26.817Z,1.73
2018-03-08T15:18:31.304Z,1.70
2018-03-08T15:23:35.012Z,2.30
2018-03-08T15:28:38.197Z,2.00
2018-03-08T15:33:41.004Z,1.90
2018-03-08T15:38:44.034Z,2.35
2018-03-08T15:43:47.853Z,4.18
2018-03-08T15:48:50.649Z,1.87
2018-03-08T15:53:53.538Z,2.10
2018-03-08T15:58:57.489Z,1.83
2018-03-08T16:04:00.644Z,1.95
2018-03-08T16:09:05.433Z,1.90
2018-03-08T16:14:08.802Z,2.00
2018-03-08T16:19:12.429Z,2.00
2018-03-08T16:24:16.069Z,2.30
2018-03-08T16:29:19.035Z,2.12
2018-03-08T16:34:21.799Z,1.93
2018-03-08T16:39:24.654Z,3.33
2018-03-08T16:44:27.686Z,4.12
2018-03-08T16:49:30.817Z,4.13
2018-03-08T16:54:33.963Z,3.20
2018-03-08T16:59:37.600Z,5.22
2018-03-08T17:04:40.439Z,3.40
2018-03-08T17:09:43.329Z,4.20
2018-03-08T17:14:46.170Z,2.60
2018-03-08T17:19:49.936Z,2.58
2018-03-08T17:24:52.735Z,2.10
2018-03-08T17:29:55.926Z,2.08
2018-03-08T17:34:58.777Z,2.28
2018-03-08T17:40:01.643Z,2.10
2018-03-08T17:45:04.450Z,2.10
2018-03-08T17:50:07.722Z,1.87
2018-03-08T17:55:11.302Z,1.83
2018-03-08T18:00:14.544Z,1.90
2018-03-08T18:05:18.174Z,1.60
2018-03-08T18:10:22.090Z,1.42
2018-03-08T18:15:25.133Z,2.10
2018-03-08T18:20:27.939Z,1.60
2018-03-08T18:25:31.284Z,2.20
2018-03-08T18:30:34.102Z,2.00
2018-03-08T18:35:37.768Z,2.20
2018-03-08T18:40:41.043Z,3.55
2018-03-08T18:45:44.855Z,2.57
2018-03-08T18:50:48.694Z,2.62
2018-03-08T18:55:51.650Z,2.37
2018-03-08T19:00:56.394Z,2.15
2018-03-08T19:05:59.279Z,2.37
2018-03-08T19:11:02.861Z,2.10
2018-03-08T19:16:05.742Z,2.10
2018-03-08T19:21:10.186Z,1.90
2018-03-08T19:26:13.740Z,1.20
2018-03-08T19:36:45.524Z,1.90
2018-03-08T19:41:48.443Z,1.50
2018-03-08T19:46:53.292Z,1.60
2018-03-08T19:51:56.316Z,1.50
2018-03-08T19:56:59.218Z,1.50
2018-03-08T20:02:02.091Z,1.40
2018-03-08T20:07:08.162Z,1.50
2018-03-08T20:12:10.973Z,1.20
2018-03-08T20:17:14.745Z,1.20
2018-03-08T20:22:17.573Z,1.15
2018-03-08T20:27:21.215Z,0.98
2018-03-08T20:32:27.434Z,1.20
2018-03-08T20:37:30.616Z,1.40
2018-03-08T20:42:35.385Z,1.00
2018-03-08T20:47:39.355Z,1.12
2018-03-08T20:52:42.422Z,1.20
2018-03-08T20:57:45.570Z,1.20
2018-03-08T21:02:48.363Z,1.05
2018-03-08T21:07:51.225Z,1.17
2018-03-08T21:12:54.994Z,1.20
2018-03-08T21:17:58.567Z,1.40
2018-03-08T21:23:02.999Z,3.25
2018-03-08T21:28:05.859Z,2.92
2018-03-08T21:33:08.917Z,2.55
2018-03-08T21:38:13.538Z,4.00
2018-03-08T21:43:16.331Z,3.72
2018-03-08T21:48:19.100Z,2.83
2018-03-08T21:53:22.236Z,6.20
2018-03-08T21:58:26.182Z,1.33
2018-03-08T22:03:30.536Z,2.40
2018-03-08T22:08:36.275Z,1.77
2018-03-08T22:13:39.390Z,1.90
2018-03-08T22:18:43.919Z,1.20
2018-03-08T22:23:46.779Z,1.40
2018-03-08T22:28:49.729Z,1.15
2018-03-08T22:33:52.581Z,1.20
2018-03-08T22:38:55.497Z,1.30
2018-03-08T22:43:58.390Z,1.50
2018-03-08T22:49:01.230Z,1.70
2018-03-08T22:54:04.791Z,2.17
2018-03-08T22:59:07.586Z,1.50
2018-03-08T23:04:10.447Z,2.10
2018-03-08T23:09:13.704Z,1.70
2018-03-08T23:14:16.860Z,1.20
2018-03-08T23:19:19.673Z,1.53
2018-03-08T23:24:22.467Z,1.80
2018-03-08T23:29:26.137Z,1.62
2018-03-08T23:34:29.273Z,1.50
2018-03-08T23:39:32.161Z,1.30
2018-03-08T23:44:35.307Z,1.60
2018-03-08T23:49:38.901Z,2.00
2018-03-08T23:54:41.705Z,1.60
2018-03-08T23:59:44.476Z,1.60
